createdAt,value
2018-12-23T00:01:18.234Z,73.53
2018-12-23T00:03:48.732Z,73.86
2018-12-23T00:06:19.221Z,74.46
2018-12-23T00:08:49.807Z,74.39
2018-12-23T00:11:20.297Z,74.87
2018-12-23T00:13:50.865Z,73.40
2018-12-23T00:16:21.355Z,73.54
2018-12-23T00:18:51.870Z,73.70
2018-12-23T00:21:22.347Z,73.06
2018-12-23T00:23:52.841Z,73.67
2018-12-23T00:26:23.352Z,73.28
2018-12-23T00:28:53.963Z,73.29
2018-12-23T00:31:24.626Z,74.04
2018-12-23T00:33:55.109Z,73.93
2018-12-23T00:36:25.669Z,73.80
2018-12-23T00:38:56.134Z,73.10
2018-12-23T00:41:26.586Z,73.19
2018-12-23T00:43:57.104Z,73.60
2018-12-23T00:46:27.764Z,73.42
2018-12-23T00:48:58.263Z,72.97
2018-12-23T00:51:28.805Z,73.35
2018-12-23T00:53:59.252Z,73.78
2018-12-23T00:56:29.828Z,73.33
2018-12-23T00:59:00.316Z,73.74
2018-12-23T01:01:30.785Z,73.33
2018-12-23T13:42:51.993Z,79.39
2018-12-23T13:46:28.024Z,79.69
2018-12-23T13:50:09.391Z,79.66
2018-12-23T13:53:07.723Z,79.95
2018-12-23T13:56:39.317Z,80.13
2018-12-23T14:00:16.427Z,79.90
2018-12-23T14:03:51.547Z,79.92
2018-12-23T14:07:31.749Z,79.74
2018-12-23T14:10:25.578Z,79.91
2018-12-23T14:12:59.473Z,79.79
2018-12-23T14:15:31.728Z,79.97
2018-12-23T14:18:03.864Z,80.07
2018-12-23T14:20:36.115Z,79.80
2018-12-23T14:23:08.274Z,80.07
2018-12-23T14:25:40.389Z,80.05
2018-12-23T14:28:12.533Z,80.24
2018-12-23T14:30:44.692Z,80.51
2018-12-23T14:33:16.801Z,80.55
2018-12-23T14:35:49.036Z,80.79
2018-12-23T14:38:21.165Z,80.70
2018-12-23T14:40:53.317Z,80.79
2018-12-23T14:43:25.419Z,80.84
2018-12-23T14:45:57.676Z,81.14
2018-12-23T14:48:29.877Z,80.77
2018-12-23T14:51:02.038Z,80.86
2018-12-23T14:53:34.181Z,80.54
2018-12-23T14:56:06.323Z,80.66
2018-12-23T14:58:40.553Z,80.69
2018-12-23T15:01:12.691Z,80.74
2018-12-23T15:03:44.801Z,80.82
2018-12-23T15:06:16.971Z,80.97
2018-12-23T15:08:49.094Z,80.97
2018-12-23T15:11:23.498Z,80.79
2018-12-23T15:13:55.749Z,80.82
2018-12-23T15:16:27.947Z,80.91
2018-12-23T15:19:01.897Z,78.84
2018-12-23T15:21:35.764Z,78.91
2018-12-23T15:24:07.891Z,79.19
2018-12-23T15:26:40.058Z,79.81
2018-12-23T15:29:15.291Z,80.24
2018-12-23T15:31:50.534Z,80.10
2018-12-23T15:34:22.660Z,79.91
2018-12-23T15:36:54.783Z,79.78
2018-12-23T15:39:26.911Z,79.70
2018-12-23T15:41:59.026Z,79.55
2018-12-23T15:44:31.661Z,79.45
2018-12-23T15:47:03.939Z,79.28
2018-12-23T15:49:36.190Z,78.97
2018-12-23T15:52:08.389Z,79.18
2018-12-23T15:54:46.246Z,79.28
2018-12-23T15:57:14.478Z,79.26
2018-12-23T15:59:46.634Z,79.14
2018-12-23T16:02:18.735Z,79.19
2018-12-23T16:04:50.850Z,79.22
2018-12-23T16:07:22.949Z,79.16
2018-12-23T16:09:55.127Z,79.41
2018-12-23T16:12:27.238Z,79.44
2018-12-23T16:14:59.336Z,79.62
2018-12-23T16:17:31.456Z,79.38
2018-12-23T16:20:03.577Z,79.67
2018-12-23T16:22:36.809Z,79.68
2018-12-23T16:25:08.943Z,79.84
2018-12-23T16:27:46.832Z,80.25
2018-12-23T16:30:19.133Z,80.01
2018-12-23T16:32:51.445Z,80.02
2018-12-23T16:35:23.740Z,80.33
2018-12-23T16:37:55.999Z,80.29
2018-12-23T16:40:33.582Z,80.36
2018-12-23T16:43:03.840Z,80.09
2018-12-23T16:45:40.279Z,80.04
2018-12-23T16:48:16.368Z,80.05
2018-12-23T16:50:55.105Z,80.00
2018-12-23T16:53:27.305Z,79.92
2018-12-23T16:55:59.515Z,80.08
2018-12-23T17:02:23.988Z,80.07
2018-12-23T17:04:58.274Z,79.68
2018-12-23T17:07:30.461Z,79.38
2018-12-23T17:10:08.160Z,79.28
2018-12-23T17:12:36.708Z,79.00
2018-12-23T17:15:09.986Z,79.09
2018-12-23T17:17:43.935Z,79.07
2018-12-23T17:20:16.449Z,79.05
2018-12-23T17:22:48.955Z,79.01
2018-12-23T17:25:21.179Z,79.03
2018-12-23T17:27:53.403Z,78.66
2018-12-23T17:30:25.603Z,78.83
2018-12-23T17:32:57.722Z,79.12
2018-12-23T17:35:29.886Z,79.31
2018-12-23T17:38:02.074Z,79.36
2018-12-23T17:40:34.280Z,79.41
2018-12-23T17:43:06.530Z,79.32
2018-12-23T17:45:38.791Z,79.27
2018-12-23T17:48:10.956Z,79.09
2018-12-23T17:50:43.140Z,78.56
2018-12-23T17:53:15.348Z,78.25
2018-12-23T17:55:49.027Z,78.00
2018-12-23T17:58:21.162Z,78.11
2018-12-23T18:00:53.377Z,78.06
2018-12-23T18:03:25.573Z,77.85
2018-12-23T18:05:57.779Z,78.45
2018-12-23T18:08:29.970Z,78.20
2018-12-23T18:11:14.608Z,78.36
2018-12-23T18:14:10.131Z,78.06
2018-12-23T18:16:47.054Z,78.05
2018-12-23T18:19:34.376Z,78.18
2018-12-23T18:22:06.650Z,78.45
2018-12-23T18:24:38.885Z,78.10
2018-12-23T18:27:12.234Z,78.03
2018-12-23T18:29:44.366Z,78.35
2018-12-23T18:32:16.516Z,78.25
2018-12-23T18:34:48.696Z,78.29
2018-12-23T18:37:20.854Z,78.36
2018-12-23T18:39:52.974Z,78.30
2018-12-23T18:42:25.073Z,78.45
2018-12-23T18:44:57.172Z,78.52
2018-12-23T18:47:29.300Z,78.61
2018-12-23T18:50:01.526Z,78.57
2018-12-23T18:52:35.674Z,78.32
2018-12-23T18:55:47.490Z,78.64
2018-12-23T18:58:19.996Z,79.05
2018-12-23T19:01:49.981Z,78.89
2018-12-23T19:04:23.796Z,78.99
2018-12-23T19:06:56.142Z,79.27
2018-12-23T19:09:59.280Z,79.19
2018-12-23T19:13:44.932Z,79.13
2018-12-23T19:17:32.557Z,79.29
2018-12-23T19:21:03.871Z,79.06
2018-12-23T19:24:10.236Z,79.44
2018-12-23T19:27:44.831Z,79.62
2018-12-23T19:31:09.364Z,80.04
2018-12-23T19:34:33.719Z,79.90
2018-12-23T19:37:59.276Z,80.14
2018-12-23T19:41:38.716Z,80.31
2018-12-23T19:45:32.703Z,80.21
2018-12-23T19:49:23.206Z,80.41
2018-12-23T19:52:53.018Z,80.40
2018-12-23T19:56:23.251Z,80.54
2018-12-23T19:59:48.213Z,80.70
2018-12-23T20:03:28.189Z,80.91
2018-12-23T20:07:24.247Z,80.92
2018-12-23T20:11:05.117Z,81.33
2018-12-23T20:14:33.512Z,80.78
2018-12-23T20:17:47.171Z,80.50
2018-12-23T20:21:05.100Z,80.45
2018-12-23T20:24:27.296Z,80.45
2018-12-23T20:28:01.915Z,80.15
2018-12-23T20:31:42.876Z,80.40
2018-12-23T20:35:19.853Z,80.17
2018-12-23T20:39:09.541Z,79.99
2018-12-23T20:42:36.127Z,79.75
2018-12-23T20:46:16.198Z,79.29
2018-12-23T20:50:03.597Z,78.96
2018-12-23T20:53:37.591Z,78.76
2018-12-23T20:57:33.457Z,78.79
2018-12-23T21:01:05.425Z,78.88
2018-12-23T21:04:23.037Z,78.95
2018-12-23T21:07:57.514Z,78.78
2018-12-23T21:11:54.600Z,78.73
2018-12-23T21:15:42.359Z,78.66
2018-12-23T21:19:33.219Z,78.33
2018-12-23T21:23:12.063Z,78.59
2018-12-23T21:26:30.981Z,78.45
2018-12-23T21:29:49.736Z,78.59
2018-12-23T21:33:51.466Z,78.28
2018-12-23T21:36:50.482Z,78.80
2018-12-23T21:40:42.316Z,78.81
2018-12-23T21:44:05.831Z,78.94
2018-12-23T21:47:16.836Z,78.25
2018-12-23T21:50:27.627Z,78.30
2018-12-23T21:54:02.712Z,77.38
2018-12-23T21:57:32.147Z,77.91
2018-12-23T22:01:03.219Z,78.45
2018-12-23T22:04:37.390Z,78.19
2018-12-23T22:07:56.524Z,79.41
2018-12-23T22:10:58.151Z,79.45
2018-12-23T22:13:30.539Z,80.08
2018-12-23T22:16:02.765Z,79.45
2018-12-23T22:18:35.128Z,78.63
2018-12-23T22:21:07.389Z,78.28
2018-12-23T22:23:40.897Z,79.19
2018-12-23T22:26:13.279Z,78.98
2018-12-23T22:28:45.550Z,79.87
2018-12-23T22:31:17.857Z,79.60
2018-12-23T22:33:52.493Z,78.71
2018-12-23T22:36:24.634Z,78.69
2018-12-23T22:38:56.840Z,79.20
2018-12-23T22:41:31.723Z,78.94
2018-12-23T22:44:04.260Z,78.52
2018-12-23T22:46:36.421Z,78.65
2018-12-23T22:49:08.634Z,78.43
2018-12-23T22:51:43.559Z,77.54
2018-12-23T22:54:15.991Z,77.73
2018-12-23T22:56:48.285Z,77.56
2018-12-23T22:59:20.395Z,78.22
2018-12-23T23:01:52.583Z,78.26
2018-12-23T23:04:24.710Z,78.56
2018-12-23T23:06:57.115Z,78.34
2018-12-23T23:09:29.258Z,79.53
2018-12-23T23:12:01.332Z,80.23
2018-12-23T23:14:33.496Z,80.43
2018-12-23T23:17:05.667Z,80.70
2018-12-23T23:19:37.795Z,80.44
2018-12-23T23:22:09.929Z,80.01
2018-12-23T23:24:42.072Z,79.68
2018-12-23T23:27:14.254Z,80.13
2018-12-23T23:29:46.377Z,80.68
2018-12-23T23:32:18.473Z,80.40
2018-12-23T23:34:50.579Z,79.81
2018-12-23T23:37:22.789Z,80.43
2018-12-23T23:39:55.105Z,79.96
2018-12-23T23:42:27.254Z,79.75
2018-12-23T23:44:59.410Z,79.32
2018-12-23T23:47:31.613Z,79.17
2018-12-23T23:50:03.721Z,79.22
2018-12-23T23:52:35.943Z,78.69
2018-12-23T23:55:08.016Z,79.25
2018-12-23T23:57:40.145Z,78.82
